sensor_id;sensor_type;location;lat;lon;timestamp;P1;durP1;ratioP1;P2;durP2;ratioP2
50086;SDS011;35967;50.718;7.050;2023-02-21T00:09:59;39.73;;;20.40;;
50086;SDS011;35967;50.718;7.050;2023-02-21T00:20:21;39.47;;;20.20;;
50086;SDS011;35967;50.718;7.050;2023-02-21T00:30:43;39.80;;;20.50;;
50086;SDS011;35967;50.718;7.050;2023-02-21T00:41:03;37.83;;;20.50;;
50086;SDS011;35967;50.718;7.050;2023-02-21T00:51:26;37.07;;;20.03;;
50086;SDS011;35967;50.718;7.050;2023-02-21T01:01:46;36.07;;;20.10;;
50086;SDS011;35967;50.718;7.050;2023-02-21T01:12:08;39.33;;;20.43;;
50086;SDS011;35967;50.718;7.050;2023-02-21T01:22:31;39.03;;;20.10;;
50086;SDS011;35967;50.718;7.050;2023-02-21T01:32:55;44.73;;;18.97;;
50086;SDS011;35967;50.718;7.050;2023-02-21T01:43:16;31.87;;;17.70;;
50086;SDS011;35967;50.718;7.050;2023-02-21T01:53:39;39.20;;;18.47;;
50086;SDS011;35967;50.718;7.050;2023-02-21T02:04:01;35.27;;;17.87;;
50086;SDS011;35967;50.718;7.050;2023-02-21T02:14:28;33.97;;;17.03;;
50086;SDS011;35967;50.718;7.050;2023-02-21T02:24:51;24.97;;;12.63;;
50086;SDS011;35967;50.718;7.050;2023-02-21T02:35:01;31.23;;;15.43;;
50086;SDS011;35967;50.718;7.050;2023-02-21T02:45:17;32.70;;;16.47;;
50086;SDS011;35967;50.718;7.050;2023-02-21T02:55:31;32.53;;;15.70;;
50086;SDS011;35967;50.718;7.050;2023-02-21T03:05:43;38.77;;;16.77;;
50086;SDS011;35967;50.718;7.050;2023-02-21T03:16:02;27.38;;;13.70;;
50086;SDS011;35967;50.718;7.050;2023-02-21T03:26:12;33.20;;;14.57;;
50086;SDS011;35967;50.718;7.050;2023-02-21T03:46:27;27.23;;;12.67;;
50086;SDS011;35967;50.718;7.050;2023-02-21T04:08:39;25.63;;;11.83;;
50086;SDS011;35967;50.718;7.050;2023-02-21T04:18:43;24.07;;;11.33;;
50086;SDS011;35967;50.718;7.050;2023-02-21T04:28:49;23.17;;;10.80;;
50086;SDS011;35967;50.718;7.050;2023-02-21T04:38:55;19.00;;;9.40;;
50086;SDS011;35967;50.718;7.050;2023-02-21T04:48:59;23.80;;;9.23;;
50086;SDS011;35967;50.718;7.050;2023-02-21T04:59:03;21.10;;;9.30;;
50086;SDS011;35967;50.718;7.050;2023-02-21T05:09:07;21.30;;;9.00;;
50086;SDS011;35967;50.718;7.050;2023-02-21T05:19:11;18.87;;;8.67;;
50086;SDS011;35967;50.718;7.050;2023-02-21T05:29:15;20.73;;;8.80;;
50086;SDS011;35967;50.718;7.050;2023-02-21T05:39:19;22.27;;;10.23;;
50086;SDS011;35967;50.718;7.050;2023-02-21T05:49:24;19.60;;;8.57;;
50086;SDS011;35967;50.718;7.050;2023-02-21T05:59:28;19.63;;;8.27;;
50086;SDS011;35967;50.718;7.050;2023-02-21T06:09:38;19.53;;;8.90;;
50086;SDS011;35967;50.718;7.050;2023-02-21T06:19:41;15.83;;;8.60;;
50086;SDS011;35967;50.718;7.050;2023-02-21T06:29:45;23.67;;;9.57;;
50086;SDS011;35967;50.718;7.050;2023-02-21T06:39:48;23.07;;;9.33;;
50086;SDS011;35967;50.718;7.050;2023-02-21T06:49:53;27.80;;;11.20;;
50086;SDS011;35967;50.718;7.050;2023-02-21T06:59:56;20.70;;;10.00;;
50086;SDS011;35967;50.718;7.050;2023-02-21T07:10:00;23.67;;;9.43;;
50086;SDS011;35967;50.718;7.050;2023-02-21T07:20:04;25.03;;;10.87;;
50086;SDS011;35967;50.718;7.050;2023-02-21T07:30:10;23.70;;;9.97;;
50086;SDS011;35967;50.718;7.050;2023-02-21T07:40:14;21.07;;;9.70;;
50086;SDS011;35967;50.718;7.050;2023-02-21T07:50:18;22.93;;;10.77;;
50086;SDS011;35967;50.718;7.050;2023-02-21T08:00:24;22.30;;;10.97;;
50086;SDS011;35967;50.718;7.050;2023-02-21T08:10:30;27.30;;;10.83;;
50086;SDS011;35967;50.718;7.050;2023-02-21T08:20:33;24.57;;;10.30;;
50086;SDS011;35967;50.718;7.050;2023-02-21T08:30:38;22.20;;;10.83;;
50086;SDS011;35967;50.718;7.050;2023-02-21T08:40:42;23.93;;;10.40;;
50086;SDS011;35967;50.718;7.050;2023-02-21T08:50:47;18.33;;;10.00;;
50086;SDS011;35967;50.718;7.050;2023-02-21T09:00:50;29.23;;;11.50;;
50086;SDS011;35967;50.718;7.050;2023-02-21T09:10:55;32.53;;;15.03;;
50086;SDS011;35967;50.718;7.050;2023-02-21T09:21:01;38.47;;;16.87;;
50086;SDS011;35967;50.718;7.050;2023-02-21T09:31:07;47.47;;;19.13;;
50086;SDS011;35967;50.718;7.050;2023-02-21T09:41:11;40.50;;;16.93;;
50086;SDS011;35967;50.718;7.050;2023-02-21T09:51:18;35.13;;;16.97;;
50086;SDS011;35967;50.718;7.050;2023-02-21T10:01:22;47.90;;;19.37;;
50086;SDS011;35967;50.718;7.050;2023-02-21T10:21:51;46.07;;;20.20;;
50086;SDS011;35967;50.718;7.050;2023-02-21T10:32:01;40.83;;;17.80;;
50086;SDS011;35967;50.718;7.050;2023-02-21T10:42:06;37.97;;;16.37;;
50086;SDS011;35967;50.718;7.050;2023-02-21T10:52:16;39.60;;;18.02;;
50086;SDS011;35967;50.718;7.050;2023-02-21T11:02:31;36.17;;;18.40;;
50086;SDS011;35967;50.718;7.050;2023-02-21T11:12:37;39.33;;;17.97;;
50086;SDS011;35967;50.718;7.050;2023-02-21T11:22:41;36.67;;;18.13;;
50086;SDS011;35967;50.718;7.050;2023-02-21T11:32:49;38.13;;;18.20;;
50086;SDS011;35967;50.718;7.050;2023-02-21T11:53:26;32.03;;;16.43;;
50086;SDS011;35967;50.718;7.050;2023-02-21T12:14:35;33.37;;;16.53;;
50086;SDS011;35967;50.718;7.050;2023-02-21T12:24:49;31.43;;;14.93;;
50086;SDS011;35967;50.718;7.050;2023-02-21T12:35:06;32.33;;;16.13;;
50086;SDS011;35967;50.718;7.050;2023-02-21T12:45:39;32.47;;;15.13;;
50086;SDS011;35967;50.718;7.050;2023-02-21T12:55:54;32.77;;;16.17;;
50086;SDS011;35967;50.718;7.050;2023-02-21T13:06:04;30.13;;;15.70;;
50086;SDS011;35967;50.718;7.050;2023-02-21T13:16:17;31.00;;;15.67;;
50086;SDS011;35967;50.718;7.050;2023-02-21T13:26:25;32.53;;;15.67;;
50086;SDS011;35967;50.718;7.050;2023-02-21T13:47:01;30.57;;;14.07;;
50086;SDS011;35967;50.718;7.050;2023-02-21T14:07:44;36.77;;;17.03;;
50086;SDS011;35967;50.718;7.050;2023-02-21T14:17:58;30.83;;;15.67;;
50086;SDS011;35967;50.718;7.050;2023-02-21T14:28:10;34.73;;;16.37;;
50086;SDS011;35967;50.718;7.050;2023-02-21T14:38:54;33.10;;;17.33;;
50086;SDS011;35967;50.718;7.050;2023-02-21T14:49:01;32.30;;;16.00;;
50086;SDS011;35967;50.718;7.050;2023-02-21T14:59:33;34.13;;;16.27;;
50086;SDS011;35967;50.718;7.050;2023-02-21T15:10:04;43.63;;;20.27;;
50086;SDS011;35967;50.718;7.050;2023-02-21T15:20:19;40.77;;;21.40;;
50086;SDS011;35967;50.718;7.050;2023-02-21T15:30:23;48.60;;;24.47;;
50086;SDS011;35967;50.718;7.050;2023-02-21T15:40:29;49.80;;;24.47;;
50086;SDS011;35967;50.718;7.050;2023-02-21T15:50:33;51.93;;;26.00;;
50086;SDS011;35967;50.718;7.050;2023-02-21T16:12:27;61.47;;;26.43;;
50086;SDS011;35967;50.718;7.050;2023-02-21T16:22:35;55.33;;;25.80;;
50086;SDS011;35967;50.718;7.050;2023-02-21T16:33:03;59.70;;;28.33;;
50086;SDS011;35967;50.718;7.050;2023-02-21T16:43:07;63.93;;;29.83;;
50086;SDS011;35967;50.718;7.050;2023-02-21T16:53:20;64.57;;;29.87;;
50086;SDS011;35967;50.718;7.050;2023-02-21T17:03:26;70.10;;;30.57;;
50086;SDS011;35967;50.718;7.050;2023-02-21T17:13:31;90.97;;;37.43;;
50086;SDS011;35967;50.718;7.050;2023-02-21T17:23:34;88.33;;;37.37;;
50086;SDS011;35967;50.718;7.050;2023-02-21T17:33:38;88.40;;;38.00;;
50086;SDS011;35967;50.718;7.050;2023-02-21T17:43:42;99.43;;;40.43;;
50086;SDS011;35967;50.718;7.050;2023-02-21T17:53:46;102.80;;;41.03;;
50086;SDS011;35967;50.718;7.050;2023-02-21T18:03:49;95.27;;;37.73;;
50086;SDS011;35967;50.718;7.050;2023-02-21T18:13:55;99.17;;;38.73;;
50086;SDS011;35967;50.718;7.050;2023-02-21T18:23:58;99.10;;;37.27;;
50086;SDS011;35967;50.718;7.050;2023-02-21T18:34:03;94.30;;;35.90;;
50086;SDS011;35967;50.718;7.050;2023-02-21T18:44:08;80.17;;;33.10;;
50086;SDS011;35967;50.718;7.050;2023-02-21T18:54:12;87.50;;;32.63;;
50086;SDS011;35967;50.718;7.050;2023-02-21T19:04:16;74.13;;;31.93;;
50086;SDS011;35967;50.718;7.050;2023-02-21T19:14:21;64.83;;;28.63;;
50086;SDS011;35967;50.718;7.050;2023-02-21T19:24:24;79.83;;;33.73;;
50086;SDS011;35967;50.718;7.050;2023-02-21T19:34:28;81.90;;;33.47;;
50086;SDS011;35967;50.718;7.050;2023-02-21T19:44:31;77.67;;;34.63;;
50086;SDS011;35967;50.718;7.050;2023-02-21T19:54:36;76.80;;;33.90;;
50086;SDS011;35967;50.718;7.050;2023-02-21T20:04:39;74.40;;;31.13;;
50086;SDS011;35967;50.718;7.050;2023-02-21T20:14:45;79.13;;;30.43;;
50086;SDS011;35967;50.718;7.050;2023-02-21T20:24:50;75.33;;;31.10;;
50086;SDS011;35967;50.718;7.050;2023-02-21T20:34:54;70.33;;;30.87;;
50086;SDS011;35967;50.718;7.050;2023-02-21T20:44:58;72.77;;;30.43;;
50086;SDS011;35967;50.718;7.050;2023-02-21T20:55:04;74.63;;;29.90;;
50086;SDS011;35967;50.718;7.050;2023-02-21T21:05:10;80.27;;;30.30;;
50086;SDS011;35967;50.718;7.050;2023-02-21T21:15:18;74.03;;;30.47;;
50086;SDS011;35967;50.718;7.050;2023-02-21T21:25:21;67.10;;;27.77;;
50086;SDS011;35967;50.718;7.050;2023-02-21T21:35:26;71.23;;;29.50;;
50086;SDS011;35967;50.718;7.050;2023-02-21T21:45:30;67.27;;;29.13;;
50086;SDS011;35967;50.718;7.050;2023-02-21T21:55:46;71.03;;;28.47;;
50086;SDS011;35967;50.718;7.050;2023-02-21T22:05:49;65.40;;;27.13;;
50086;SDS011;35967;50.718;7.050;2023-02-21T22:15:54;72.23;;;28.27;;
50086;SDS011;35967;50.718;7.050;2023-02-21T22:25:57;73.63;;;28.70;;
50086;SDS011;35967;50.718;7.050;2023-02-21T22:36:02;73.23;;;28.70;;
50086;SDS011;35967;50.718;7.050;2023-02-21T22:46:06;70.83;;;27.87;;
50086;SDS011;35967;50.718;7.050;2023-02-21T22:56:12;64.37;;;26.83;;
50086;SDS011;35967;50.718;7.050;2023-02-21T23:06:17;60.43;;;25.93;;
50086;SDS011;35967;50.718;7.050;2023-02-21T23:16:22;65.33;;;25.67;;
50086;SDS011;35967;50.718;7.050;2023-02-21T23:26:25;62.03;;;25.17;;
50086;SDS011;35967;50.718;7.050;2023-02-21T23:36:30;63.60;;;26.30;;
50086;SDS011;35967;50.718;7.050;2023-02-21T23:46:33;62.80;;;25.87;;
50086;SDS011;35967;50.718;7.050;2023-02-21T23:56:37;65.07;;;24.53;;
